LEPALEMH

Guest
Details From LEPA - Palma De Mallorca
To LEMH - Menorca
Flight Number -
Tags Generated
Created
Modified
Stats Distance 72 nm / 133 km
Max Altitude 0 ft / 0 m
Waypoints 2
Social Downloads 6
Likes 0
Share VATSIM

Download

Looking for another format? Having issues loading an existing format? Contact us
Advertisement - Login to hide

Notes

Generated

Route

LEPA LEMH

ID Type Via Altitude Latitude Longitude Leg Dist Tot Dist Heading (true) Name
O LEPA APT - 0 ft / 0 m 39.54873˚ 2.71867˚ - 0 nm - -
O LEMH APT - 0 ft / 0 m 39.85339˚ 4.21914˚ 71 nm 71 nm 75° / 76° -

Altitude Profile

Advertisement - Login to hide

LEPA

Details ICAO LEPA (PMI)
Name Palma De Mallorca
Region Spain
Timezone Europe/Madrid (UTC+1.0)
Stats Elevation 24 ft / 7 m (AMSL)
Location 39.552536° 2.734958°
Runways 3
Magnetic Variation 0.986° E

METAR

LEPA 140630Z 26010KT CAVOK 14/09 Q1019 NOSIG

Decode

TAF

TAF TAF LEPA 140500Z 1406/1506 25012KT 9999 FEW020 TX17/1412Z TN11/1406Z PROB30 TEMPO 1406/1418 25014G24KT PROB40 TEMPO 1418/1506 25015G25KT PROB30 TEMPO 1503/1506 RA BKN020

Decode

Departure Runways

ID Width Length Bearing (true) Bearing (mag) Surface Threshold Offset Overrun Length
06C 148 ft / 45 m 8,181 ft / 2,494 m 58.47° 57.48° Asphalt 0 ft / 0 m 0 ft / 0 m
06L 148 ft / 45 m 10,716 ft / 3,266 m 58.46° 57.47° Asphalt 0 ft / 0 m 0 ft / 0 m
06R 148 ft / 45 m 9,832 ft / 2,997 m 58.48° 57.49° Asphalt 1,345 ft / 410 m 0 ft / 0 m
24C 148 ft / 45 m 8,181 ft / 2,494 m 238.49° 237.50° Asphalt 0 ft / 0 m 0 ft / 0 m
24L 148 ft / 45 m 9,832 ft / 2,997 m 238.50° 237.51° Asphalt 0 ft / 0 m 197 ft / 60 m
24R 148 ft / 45 m 10,716 ft / 3,266 m 238.48° 237.49° Asphalt 230 ft / 70 m 0 ft / 0 m

LEMH

Details ICAO LEMH (MAH)
Name Menorca
Region Spain
Timezone Europe/Madrid (UTC+1.0)
Stats Elevation 298 ft / 91 m (AMSL)
Location 39.862221° 4.219762°
Runways 2
Magnetic Variation 1.325° E

METAR

LEMH 140630Z 25013KT 220V290 9999 FEW025 13/08 Q1018

Decode

TAF

TAF LEMH 140200Z 1403/1503 25015KT 9999 SCT040 TX17/1412Z TN09/1406Z TEMPO 1403/1407 25016G26KT TEMPO 1419/1503 25018G28KT

Decode

Destination Runways

ID Width Length Bearing (true) Bearing (mag) Surface Threshold Offset Overrun Length
01L 148 ft / 45 m 7,723 ft / 2,354 m 8.97° 7.64° Asphalt 0 ft / 0 m 164 ft / 50 m
01R 148 ft / 45 m 6,903 ft / 2,104 m 8.97° 7.64° Asphalt 0 ft / 0 m 0 ft / 0 m
19L 148 ft / 45 m 6,903 ft / 2,104 m 188.97° 187.64° Asphalt 0 ft / 0 m 0 ft / 0 m
19R 148 ft / 45 m 7,723 ft / 2,354 m 188.97° 187.64° Asphalt 0 ft / 0 m 164 ft / 50 m

Approach Navaids

Runway Type Ident Frequency Range Bearing (true) Bearing (mag) Slope Elevation
01L Localiser IMH 110.30 MHz 18 nm / 33 km 8.97° 7.64° - 298 ft / 91 m (AMSL)
01L Glidescope IMH 110.30 MHz 10 nm / 19 km 8.97° 7.64° 3.00° 298 ft / 91 m (AMSL)
01L DME IMH 110.30 MHz 18 nm / 33 km - - - 298 ft / 91 m (AMSL)

Popular Alternatives